Time;durP1;ratioP1;P1;durP2;ratioP2;P2;SDS_P1;SDS_P2;PMS_P1;PMS_P2;Temp;Humidity;BMP_temperature;BMP_pressure;BME280_temperature;BME280_humidity;BME280_pressure;Samples;Min_cycle;Max_cycle;Signal;HPM_P1;HPM_P2
2023/06/22 00:01:28;;;;;;;23.02;15.40;;;18.90;99.90;;;;;;5050274;28;20484;-79
2023/06/22 00:03:54;;;;;;;18.17;15.73;;;18.90;99.90;;;;;;5051474;28;20042;-79
2023/06/22 00:06:20;;;;;;;18.48;15.15;;;18.90;99.90;;;;;;5066830;28;20500;-81
2023/06/22 00:08:47;;;;;;;19.20;15.60;;;19.10;99.90;;;;;;5051657;28;20169;-79
2023/06/22 00:11:12;;;;;;;20.00;17.13;;;19.30;99.90;;;;;;5050977;28;20040;-79
2023/06/22 00:13:38;;;;;;;20.98;16.98;;;18.70;99.90;;;;;;5067730;28;20048;-79
2023/06/22 00:16:05;;;;;;;21.20;16.10;;;18.60;99.90;;;;;;5067523;28;20033;-79
2023/06/22 00:18:32;;;;;;;20.35;16.60;;;18.60;99.90;;;;;;5051262;28;20051;-79
2023/06/22 00:20:58;;;;;;;22.40;17.38;;;18.60;99.90;;;;;;5051088;28;20044;-80
2023/06/22 00:23:24;;;;;;;21.35;16.60;;;18.60;99.90;;;;;;5051232;28;20045;-79
2023/06/22 00:25:50;;;;;;;18.92;15.20;;;18.60;99.90;;;;;;5051541;28;20098;-79
2023/06/22 00:28:15;;;;;;;19.23;15.18;;;18.50;99.90;;;;;;5066441;28;20037;-80
2023/06/22 00:30:41;;;;;;;19.00;16.27;;;18.50;99.90;;;;;;5067991;28;20048;-79
2023/06/22 00:33:07;;;;;;;18.08;15.70;;;18.50;99.90;;;;;;5069120;28;20040;-79
2023/06/22 00:35:33;;;;;;;19.40;16.38;;;18.50;99.90;;;;;;5068499;28;20392;-80
2023/06/22 00:38:04;;;;;;;18.10;16.15;;;19.10;99.90;;;;;;5067134;28;20100;-80
2023/06/22 00:40:31;;;;;;;20.80;16.27;;;19.40;99.90;;;;;;5051117;28;20492;-80
2023/06/22 00:42:57;;;;;;;18.50;16.35;;;18.40;99.90;;;;;;5067142;28;20036;-79
2023/06/22 00:45:24;;;;;;;16.73;15.02;;;18.40;99.90;;;;;;5050450;28;20041;-79
2023/06/22 00:47:55;;;;;;;18.42;16.48;;;18.40;99.90;;;;;;5067595;28;20079;-79
2023/06/22 00:50:23;;;;;;;20.00;16.00;;;18.50;99.90;;;;;;5066397;28;20076;-79
2023/06/22 00:52:52;;;;;;;21.67;16.20;;;19.30;99.90;;;;;;5067689;28;20060;-80
2023/06/22 00:55:20;;;;;;;19.80;16.25;;;18.40;99.90;;;;;;5066957;28;20037;-79
2023/06/22 00:57:47;;;;;;;22.77;17.38;;;18.40;99.90;;;;;;5050100;28;20376;-80
2023/06/22 01:00:16;;;;;;;20.65;18.48;;;18.30;99.90;;;;;;5068401;28;20094;-80
2023/06/22 01:02:44;;;;;;;23.05;17.35;;;18.30;99.90;;;;;;5067138;28;20086;-79
2023/06/22 01:05:10;;;;;;;18.85;16.10;;;18.30;99.90;;;;;;5050476;28;20036;-80
2023/06/22 01:07:38;;;;;;;21.48;16.55;;;18.20;99.90;;;;;;5068591;28;20055;-79
2023/06/22 01:10:10;;;;;;;19.63;16.73;;;18.20;99.90;;;;;;5067910;28;20487;-79
2023/06/22 01:12:43;;;;;;;18.90;15.70;;;18.20;99.90;;;;;;5051202;28;20507;-80
2023/06/22 01:15:21;;;;;;;18.70;16.67;;;18.30;99.90;;;;;;5050825;28;20140;-79
2023/06/22 01:17:49;;;;;;;19.25;15.77;;;18.20;99.90;;;;;;5068010;28;20119;-80
2023/06/22 01:20:16;;;;;;;20.05;15.50;;;18.20;99.90;;;;;;5066908;28;20044;-78
2023/06/22 01:23:18;;;;;;;19.90;16.90;;;18.70;99.90;;;;;;5069095;28;20040;-81
2023/06/22 01:25:59;;;;;;;20.10;15.40;;;18.30;99.90;;;;;;5063854;28;20526;-79
2023/06/22 01:28:47;;;;;;;17.85;15.27;;;18.20;99.90;;;;;;5048794;28;20106;-79
2023/06/22 01:31:20;;;;;;;19.77;15.57;;;18.20;99.90;;;;;;5059639;28;20511;-79
2023/06/22 01:33:51;;;;;;;18.92;15.07;;;18.20;99.90;;;;;;5068756;28;20059;-79
2023/06/22 01:36:17;;;;;;;18.98;14.55;;;18.20;99.90;;;;;;5042218;28;20127;-79
2023/06/22 01:38:44;;;;;;;16.67;14.88;;;18.20;99.90;;;;;;5066209;28;20098;-78
2023/06/22 01:41:13;;;;;;;15.88;14.27;;;18.10;99.90;;;;;;5070236;28;20368;-78
2023/06/22 01:43:39;;;;;;;17.90;15.40;;;18.10;99.90;;;;;;5071354;28;20059;-79
2023/06/22 01:46:06;;;;;;;15.18;13.55;;;18.10;99.90;;;;;;5069696;28;20487;-79
2023/06/22 01:48:32;;;;;;;16.20;14.05;;;18.10;99.90;;;;;;5071016;28;20045;-79
2023/06/22 01:50:58;;;;;;;16.63;14.95;;;18.10;99.90;;;;;;5071064;28;20089;-80
2023/06/22 01:53:24;;;;;;;18.95;16.17;;;18.10;99.90;;;;;;5070107;28;20384;-78
2023/06/22 01:55:50;;;;;;;18.08;16.10;;;18.10;99.90;;;;;;5053622;28;20059;-80
2023/06/22 01:58:16;;;;;;;16.95;15.07;;;18.00;99.90;;;;;;5070534;28;20427;-79
2023/06/22 02:00:50;;;;;;;16.98;15.27;;;18.10;99.90;;;;;;5053321;28;20048;-79
2023/06/22 02:03:25;;;;;;;22.98;19.02;;;18.10;99.90;;;;;;5062165;28;20048;-79
2023/06/22 02:05:56;;;;;;;19.85;17.00;;;18.00;99.90;;;;;;5070660;28;20048;-79
2023/06/22 02:08:30;;;;;;;17.80;16.00;;;18.00;99.90;;;;;;5053318;28;20475;-79
2023/06/22 02:10:57;;;;;;;;;;;18.00;99.90;;;;;;5072733;28;20040;-78
2023/06/22 02:13:24;;;;;;;16.95;15.05;;;17.80;99.90;;;;;;5052891;28;19966;-79
2023/06/22 02:15:50;;;;;;;17.60;15.90;;;17.90;99.90;;;;;;5053674;28;20063;-79
2023/06/22 02:18:16;;;;;;;17.10;15.50;;;17.90;99.90;;;;;;5062026;28;20500;-79
2023/06/22 02:20:43;;;;;;;16.70;14.98;;;17.90;99.90;;;;;;5071062;28;20086;-79
2023/06/22 02:23:08;;;;;;;18.33;15.40;;;17.90;99.90;;;;;;5069961;28;20634;-79
2023/06/22 02:25:35;;;;;;;16.50;14.77;;;17.90;99.90;;;;;;5071334;28;20105;-79
2023/06/22 02:28:01;;;;;;;15.73;14.25;;;17.90;99.90;;;;;;5070566;28;20507;-79
2023/06/22 02:30:27;;;;;;;15.43;13.93;;;17.90;99.90;;;;;;5071395;28;20123;-79
2023/06/22 02:32:58;;;;;;;15.55;14.05;;;17.90;99.90;;;;;;5053656;28;20140;-79
2023/06/22 02:35:35;;;;;;;13.73;12.52;;;17.80;99.90;;;;;;5069501;28;20036;-79
2023/06/22 02:38:02;;;;;;;13.95;12.65;;;17.80;99.90;;;;;;5053167;28;20053;-79
2023/06/22 02:40:29;;;;;;;14.25;12.70;;;17.80;99.90;;;;;;5069879;28;20028;-79
2023/06/22 02:42:55;;;;;;;14.82;13.48;;;17.70;99.90;;;;;;5070833;28;20484;-79
2023/06/22 02:45:20;;;;;;;13.23;12.13;;;17.70;99.90;;;;;;5069155;28;20047;-80
2023/06/22 02:47:47;;;;;;;12.93;11.75;;;17.60;99.90;;;;;;5069937;28;20044;-80
2023/06/22 02:50:13;;;;;;;12.55;11.35;;;17.60;99.90;;;;;;5068341;28;20041;-80
2023/06/22 02:52:39;;;;;;;12.27;11.15;;;17.60;99.90;;;;;;5070219;28;20052;-80
2023/06/22 02:55:07;;;;;;;13.90;12.50;;;17.60;99.90;;;;;;5069583;28;20041;-80
2023/06/22 02:57:32;;;;;;;13.27;12.07;;;17.60;99.90;;;;;;5052763;28;20055;-79
2023/06/22 02:59:59;;;;;;;12.88;11.63;;;17.60;99.90;;;;;;5069895;28;20044;-78
2023/06/22 03:02:26;;;;;;;13.30;11.98;;;17.60;99.90;;;;;;5071400;28;20506;-80
2023/06/22 03:04:53;;;;;;;13.55;12.35;;;17.60;99.90;;;;;;5077866;28;20127;-79
2023/06/22 03:07:19;;;;;;;13.82;12.57;;;17.60;99.90;;;;;;5071402;28;20048;-80
2023/06/22 03:09:45;;;;;;;12.63;11.52;;;17.70;99.90;;;;;;5069208;28;20120;-78
2023/06/22 03:12:11;;;;;;;14.05;12.65;;;17.60;99.90;;;;;;5069414;28;20123;-80
2023/06/22 03:14:38;;;;;;;13.52;12.32;;;17.50;99.90;;;;;;5069529;28;20040;-80
2023/06/22 03:17:05;;;;;;;14.05;12.75;;;17.50;99.90;;;;;;5051472;28;20049;-80
2023/06/22 03:19:31;;;;;;;14.23;12.93;;;17.50;99.90;;;;;;5070711;28;20048;-79
2023/06/22 03:22:00;;;;;;;13.15;11.95;;;17.40;99.90;;;;;;5070646;28;20441;-80
2023/06/22 03:24:28;;;;;;;12.32;11.20;;;17.50;99.90;;;;;;5051527;28;20492;-79
2023/06/22 03:26:54;;;;;;;14.23;12.98;;;17.50;99.90;;;;;;5068833;28;20044;-79
2023/06/22 03:29:20;;;;;;;13.18;11.88;;;17.50;99.90;;;;;;5069852;28;20433;-80
2023/06/22 03:31:46;;;;;;;13.68;12.27;;;18.10;99.90;;;;;;5069750;28;20440;-79
2023/06/22 03:34:11;;;;;;;13.73;12.43;;;17.40;99.90;;;;;;5051601;28;20113;-79
2023/06/22 03:36:37;;;;;;;13.95;12.75;;;17.40;99.90;;;;;;5068988;28;20115;-80
2023/06/22 03:39:03;;;;;;;13.30;11.95;;;17.30;99.90;;;;;;5070211;28;20040;-79
2023/06/22 03:41:30;;;;;;;12.65;11.48;;;17.40;99.90;;;;;;5052347;28;20438;-81
2023/06/22 03:43:55;;;;;;;14.85;13.45;;;17.40;99.90;;;;;;5069808;28;20032;-78
2023/06/22 03:46:21;;;;;;;15.20;13.85;;;17.40;99.90;;;;;;5067021;28;20039;-78
2023/06/22 03:48:46;;;;;;;15.10;13.70;;;17.40;99.90;;;;;;5052097;28;20099;-78
2023/06/22 03:51:12;;;;;;;14.45;13.13;;;17.40;99.90;;;;;;5069317;28;20051;-79
2023/06/22 03:53:38;;;;;;;13.15;11.90;;;17.40;99.90;;;;;;5051889;28;20029;-78
2023/06/22 03:56:04;;;;;;;12.25;11.13;;;17.40;99.90;;;;;;5069307;28;20094;-79
2023/06/22 03:58:32;;;;;;;11.90;10.90;;;17.40;99.90;;;;;;5068745;28;20156;-79
2023/06/22 04:00:59;;;;;;;12.55;11.45;;;17.40;99.90;;;;;;5052666;28;20056;-79
2023/06/22 04:03:25;;;;;;;11.75;10.75;;;17.40;99.90;;;;;;5068605;28;20033;-79
2023/06/22 04:05:51;;;;;;;12.60;11.43;;;17.40;99.90;;;;;;5067547;28;20156;-78
2023/06/22 04:08:17;;;;;;;12.10;11.10;;;17.40;99.90;;;;;;5051509;28;20434;-78
2023/06/22 04:10:43;;;;;;;10.57;9.68;;;17.40;99.90;;;;;;5051735;28;20058;-78
2023/06/22 04:13:09;;;;;;;9.50;8.80;;;17.40;99.90;;;;;;5067514;28;20045;-79
2023/06/22 04:15:35;;;;;;;9.77;9.02;;;17.40;99.90;;;;;;5067845;28;20082;-79
2023/06/22 04:18:01;;;;;;;10.48;9.43;;;17.40;99.90;;;;;;5068506;28;20159;-79
2023/06/22 04:20:26;;;;;;;12.48;11.57;;;17.40;99.90;;;;;;5068023;28;20071;-79
2023/06/22 04:22:53;;;;;;;10.82;9.93;;;17.40;99.90;;;;;;5052333;28;20044;-78
2023/06/22 04:25:20;;;;;;;10.93;9.90;;;17.30;99.90;;;;;;5051557;28;20044;-78
2023/06/22 04:27:46;;;;;;;10.70;9.75;;;17.30;99.90;;;;;;5067805;28;20052;-79
2023/06/22 04:30:16;;;;;;;10.43;9.60;;;17.30;99.90;;;;;;5068706;28;20679;-77
2023/06/22 04:32:41;;;;;;;11.60;10.50;;;17.30;99.90;;;;;;5068832;28;20056;-78
2023/06/22 04:35:07;;;;;;;11.77;10.68;;;17.30;99.90;;;;;;5052033;28;20032;-80
2023/06/22 04:37:34;;;;;;;12.50;11.43;;;17.30;99.90;;;;;;5068676;28;20044;-80
2023/06/22 04:40:00;;;;;;;13.23;11.05;;;17.30;99.90;;;;;;5069486;28;20047;-79
2023/06/22 04:42:28;;;;;;;14.48;13.07;;;17.30;99.90;;;;;;5075975;28;20052;-79
2023/06/22 04:44:54;;;;;;;14.23;12.82;;;17.30;99.90;;;;;;5071164;28;20045;-80
2023/06/22 04:47:20;;;;;;;14.43;13.02;;;17.40;99.90;;;;;;5067963;28;20052;-79
2023/06/22 04:49:53;;;;;;;17.42;15.45;;;17.30;99.90;;;;;;5073093;28;20055;-81
2023/06/22 04:52:25;;;;;;;17.48;15.88;;;17.30;99.90;;;;;;5071059;28;20048;-79
2023/06/22 04:54:55;;;;;;;17.70;15.90;;;17.30;99.90;;;;;;5069175;28;20388;-79
2023/06/22 04:57:30;;;;;;;18.75;16.88;;;17.40;99.90;;;;;;5068603;28;20048;-79
2023/06/22 04:59:56;;;;;;;19.27;17.38;;;17.40;99.90;;;;;;5068678;28;20055;-79
2023/06/22 05:02:27;;;;;;;21.30;18.88;;;17.40;99.90;;;;;;5073719;28;20036;-78
2023/06/22 05:04:56;;;;;;;20.95;18.95;;;17.40;99.90;;;;;;5055289;28;20123;-81
2023/06/22 05:07:25;;;;;;;23.45;21.00;;;17.40;99.90;;;;;;5052304;28;20150;-78
2023/06/22 05:09:51;;;;;;;24.10;21.50;;;17.40;99.90;;;;;;5070913;28;20059;-79
2023/06/22 05:12:16;;;;;;;22.88;20.63;;;17.40;99.90;;;;;;5055824;28;20381;-80
2023/06/22 05:14:42;;;;;;;23.77;21.55;;;17.40;99.90;;;;;;5071483;28;20049;-79
2023/06/22 05:17:13;;;;;;;25.77;21.15;;;17.50;99.90;;;;;;5067988;28;20127;-80
2023/06/22 05:19:39;;;;;;;24.45;21.85;;;17.50;99.90;;;;;;5071059;28;20092;-79
2023/06/22 05:22:06;;;;;;;32.33;28.90;;;17.60;99.90;;;;;;5068496;28;20051;-80
2023/06/22 05:24:32;;;;;;;27.58;24.67;;;17.60;99.90;;;;;;5059912;28;20044;-79
2023/06/22 05:26:57;;;;;;;30.83;27.00;;;17.60;99.90;;;;;;5067168;28;20105;-80
2023/06/22 05:29:26;;;;;;;30.52;27.33;;;17.70;99.90;;;;;;5050635;28;20071;-80
2023/06/22 05:31:52;;;;;;;35.08;28.20;;;17.70;99.90;;;;;;5033893;28;20392;-80
2023/06/22 05:34:18;;;;;;;32.35;27.80;;;17.70;99.90;;;;;;5049807;28;20138;-80
2023/06/22 05:36:43;;;;;;;29.92;26.35;;;17.70;99.90;;;;;;5066936;28;20048;-80
2023/06/22 05:39:13;;;;;;;34.92;29.40;;;17.80;99.90;;;;;;5049959;28;20040;-80
2023/06/22 05:41:39;;;;;;;31.08;27.77;;;17.80;99.90;;;;;;5067273;28;20037;-79
2023/06/22 05:44:05;;;;;;;30.40;27.23;;;17.80;99.90;;;;;;5066323;28;20094;-80
2023/06/22 05:46:30;;;;;;;32.20;28.27;;;17.90;99.90;;;;;;5066415;28;20119;-80
2023/06/22 05:48:56;;;;;;;29.05;26.08;;;17.90;99.90;;;;;;5067524;28;20047;-80
2023/06/22 05:51:22;;;;;;;31.02;26.20;;;17.90;99.90;;;;;;5049805;28;20049;-80
2023/06/22 05:53:49;;;;;;;31.33;27.63;;;18.00;99.90;;;;;;5067763;28;20048;-80
2023/06/22 05:56:16;;;;;;;30.67;26.35;;;18.00;99.90;;;;;;5049465;28;20177;-80
2023/06/22 05:58:41;;;;;;;34.17;29.30;;;18.10;99.90;;;;;;5068735;28;20049;-79
2023/06/22 06:01:07;;;;;;;28.58;24.50;;;18.10;99.90;;;;;;5075869;28;20606;-79
2023/06/22 06:03:33;;;;;;;28.10;24.08;;;18.10;99.90;;;;;;5071938;28;20534;-79
2023/06/22 06:06:02;;;;;;;28.90;25.80;;;18.20;99.90;;;;;;5068007;28;20040;-79
2023/06/22 06:08:28;;;;;;;30.70;26.75;;;18.20;99.90;;;;;;5069059;28;20070;-78
2023/06/22 06:10:54;;;;;;;28.95;24.85;;;18.30;99.90;;;;;;5051187;28;20040;-78
2023/06/22 06:13:20;;;;;;;30.67;27.42;;;17.60;99.90;;;;;;5050731;28;20121;-80
2023/06/22 06:15:46;;;;;;;33.65;26.95;;;18.40;99.90;;;;;;5068487;28;20120;-80
2023/06/22 06:18:11;;;;;;;33.45;26.83;;;18.40;99.90;;;;;;5070930;28;20036;-79
2023/06/22 06:20:37;;;;;;;29.58;26.30;;;18.50;99.90;;;;;;5075265;28;20051;-80
2023/06/22 06:23:03;;;;;;;36.72;29.95;;;18.50;99.90;;;;;;5051129;28;20041;-78
2023/06/22 06:25:28;;;;;;;28.50;25.27;;;18.60;99.90;;;;;;5049911;28;20070;-79
2023/06/22 06:27:54;;;;;;;29.75;23.88;;;18.60;99.90;;;;;;5069810;28;20059;-79
2023/06/22 06:30:21;;;;;;;26.10;23.40;;;18.70;99.90;;;;;;5070439;28;20044;-79
2023/06/22 06:32:47;;;;;;;25.92;22.25;;;18.70;99.90;;;;;;5054628;28;20131;-79
2023/06/22 06:35:15;;;;;;;24.17;21.65;;;18.70;99.90;;;;;;5070885;28;20127;-80
2023/06/22 06:37:43;;;;;;;25.15;20.55;;;18.80;99.90;;;;;;5074521;28;20048;-80
2023/06/22 06:40:11;;;;;;;20.52;18.42;;;18.90;99.90;;;;;;5070881;28;20055;-79
2023/06/22 06:42:40;;;;;;;20.50;18.35;;;18.90;99.90;;;;;;5070745;28;20079;-79
2023/06/22 06:45:06;;;;;;;21.98;19.05;;;18.90;99.90;;;;;;5070329;28;20044;-80
2023/06/22 06:47:32;;;;;;;20.20;18.10;;;19.00;99.90;;;;;;5054462;28;20093;-78
2023/06/22 06:49:58;;;;;;;20.65;18.45;;;19.10;99.90;;;;;;5054102;28;20048;-79
2023/06/22 06:52:23;;;;;;;20.27;18.10;;;19.10;99.90;;;;;;5072235;28;20040;-80
2023/06/22 06:54:51;;;;;;;19.55;17.55;;;19.20;99.90;;;;;;5071031;28;20044;-78
2023/06/22 06:57:20;;;;;;;17.23;15.43;;;19.20;99.90;;;;;;5069732;28;20079;-79
2023/06/22 06:59:46;;;;;;;17.05;15.25;;;19.30;99.90;;;;;;5073116;28;20040;-79
2023/06/22 07:02:12;;;;;;;16.77;14.18;;;19.30;99.90;;;;;;5053718;28;20502;-80
2023/06/22 07:04:37;;;;;;;17.05;15.18;;;19.40;99.90;;;;;;5057201;28;20459;-79
2023/06/22 07:07:03;;;;;;;17.38;15.57;;;19.40;99.90;;;;;;5053471;28;20049;-79
2023/06/22 07:09:29;;;;;;;15.10;13.43;;;19.50;99.90;;;;;;5052757;28;20036;-79
2023/06/22 07:11:57;;;;;;;16.27;13.60;;;19.60;99.90;;;;;;5071182;28;20301;-80
2023/06/22 07:14:23;;;;;;;24.40;14.68;;;19.60;99.90;;;;;;5069606;28;20132;-79
2023/06/22 07:16:49;;;;;;;15.07;13.48;;;19.70;99.90;;;;;;5052748;28;20036;-79
2023/06/22 07:19:15;;;;;;;16.80;14.25;;;19.40;99.90;;;;;;5073685;28;20029;-80
2023/06/22 07:21:40;;;;;;;16.20;14.10;;;19.80;99.90;;;;;;5069940;28;20551;-80
2023/06/22 07:24:07;;;;;;;25.92;22.20;;;19.80;99.90;;;;;;5068524;28;20040;-80
2023/06/22 07:26:33;;;;;;;16.90;14.10;;;19.80;99.90;;;;;;5070266;28;20131;-80
2023/06/22 07:28:59;;;;;;;13.45;12.07;;;19.80;99.90;;;;;;5069492;28;20036;-79
2023/06/22 07:31:25;;;;;;;13.60;12.23;;;19.90;99.90;;;;;;5070608;28;20047;-80
2023/06/22 07:33:51;;;;;;;12.88;10.98;;;20.00;99.90;;;;;;5070655;28;20127;-79
2023/06/22 07:36:17;;;;;;;12.75;11.55;;;20.00;99.90;;;;;;5069083;28;20156;-79
2023/06/22 07:38:43;;;;;;;12.10;10.45;;;20.00;99.90;;;;;;5069091;28;20071;-79
2023/06/22 07:41:09;;;;;;;12.68;10.65;;;20.10;99.90;;;;;;5069235;28;20391;-79
2023/06/22 07:43:36;;;;;;;11.15;9.95;;;20.10;99.90;;;;;;5052083;28;20559;-79
2023/06/22 07:46:03;;;;;;;11.48;10.18;;;20.20;99.90;;;;;;5070293;28;20075;-79
2023/06/22 07:48:29;;;;;;;10.70;9.40;;;20.20;99.90;;;;;;5069283;28;20090;-79
2023/06/22 07:50:55;;;;;;;11.68;10.38;;;20.30;99.90;;;;;;5053124;28;20464;-79
2023/06/22 07:53:22;;;;;;;12.18;9.77;;;20.30;99.90;;;;;;5070186;28;20044;-79
2023/06/22 07:55:49;;;;;;;10.60;9.52;;;20.20;99.90;;;;;;5076518;28;20044;-79
2023/06/22 07:58:15;;;;;;;10.27;7.95;;;20.30;99.90;;;;;;5072844;28;20037;-78
2023/06/22 08:00:41;;;;;;;10.07;8.02;;;20.40;99.90;;;;;;5069603;28;20076;-80
2023/06/22 08:03:07;;;;;;;8.40;7.45;;;20.40;99.90;;;;;;5069196;28;20133;-79
2023/06/22 08:05:33;;;;;;;10.07;7.40;;;20.50;99.90;;;;;;5068400;28;20052;-79
2023/06/22 08:07:59;;;;;;;9.95;7.10;;;20.50;99.90;;;;;;5052703;28;20048;-78
2023/06/22 08:10:25;;;;;;;9.13;7.68;;;20.60;99.90;;;;;;5070094;28;20043;-79
2023/06/22 08:12:52;;;;;;;12.00;9.23;;;20.60;99.90;;;;;;5068479;28;20075;-77
2023/06/22 08:15:19;;;;;;;8.93;8.02;;;20.70;99.90;;;;;;5067639;28;20036;-77
2023/06/22 08:17:48;;;;;;;12.95;8.10;;;20.70;99.90;;;;;;5070982;28;20047;-79
2023/06/22 08:20:14;;;;;;;9.38;7.22;;;20.70;99.90;;;;;;5050840;28;20047;-79
2023/06/22 08:22:40;;;;;;;8.18;7.20;;;20.80;99.90;;;;;;5071191;28;20044;-79
2023/06/22 08:25:07;;;;;;;13.32;7.47;;;20.80;99.90;;;;;;5069545;28;20074;-79
2023/06/22 08:27:32;;;;;;;8.38;7.50;;;20.90;99.90;;;;;;5050994;28;20044;-79
2023/06/22 08:30:02;;;;;;;9.75;7.85;;;21.00;99.90;;;;;;5052323;28;20613;-80
2023/06/22 08:32:29;;;;;;;9.45;8.35;;;21.00;99.90;;;;;;5051985;28;20080;-80
2023/06/22 08:35:01;;;;;;;13.25;9.07;;;21.00;99.90;;;;;;5076157;28;20100;-77
2023/06/22 08:37:30;;;;;;;15.18;11.88;;;21.00;99.90;;;;;;5057632;28;20399;-81
2023/06/22 08:39:58;;;;;;;11.70;8.77;;;21.00;99.90;;;;;;5067962;28;20403;-78
2023/06/22 08:42:25;;;;;;;8.95;8.10;;;21.00;99.90;;;;;;5051718;28;20055;-79
2023/06/22 08:44:51;;;;;;;11.50;8.15;;;21.00;99.90;;;;;;5051811;28;20036;-78
2023/06/22 08:47:16;;;;;;;9.73;8.13;;;21.10;99.90;;;;;;5069116;28;20123;-79
2023/06/22 08:49:42;;;;;;;10.27;8.93;;;21.20;99.90;;;;;;5069299;28;20041;-79
2023/06/22 08:52:08;;;;;;;10.45;9.45;;;21.20;99.90;;;;;;5068913;28;20044;-79
2023/06/22 08:54:34;;;;;;;8.65;7.85;;;21.20;99.90;;;;;;5050589;28;20068;-79
2023/06/22 08:57:01;;;;;;;11.90;9.73;;;21.30;99.90;;;;;;5051592;28;20048;-80
2023/06/22 08:59:27;;;;;;;13.10;9.82;;;21.40;99.90;;;;;;5052055;28;20055;-79
2023/06/22 09:01:53;;;;;;;10.10;8.57;;;21.40;99.90;;;;;;5069655;28;20044;-79
2023/06/22 09:04:18;;;;;;;8.68;7.78;;;21.40;99.90;;;;;;5052330;28;20060;-77
2023/06/22 09:06:45;;;;;;;11.40;8.32;;;21.50;99.90;;;;;;5068352;28;20072;-79
2023/06/22 09:09:14;;;;;;;11.52;7.28;;;21.50;99.90;;;;;;5068999;28;20119;-79
2023/06/22 09:11:40;;;;;;;8.25;7.45;;;21.60;99.90;;;;;;5068144;28;20412;-79
2023/06/22 09:14:06;;;;;;;11.63;8.57;;;21.60;99.90;;;;;;5068984;28;20037;-79
2023/06/22 09:16:32;;;;;;;11.50;8.07;;;21.70;99.90;;;;;;5068157;28;20047;-79
2023/06/22 09:18:58;;;;;;;18.10;9.85;;;21.80;99.90;;;;;;5068449;28;20045;-80
2023/06/22 09:21:23;;;;;;;12.75;8.80;;;21.90;99.90;;;;;;5051098;28;20119;-80
2023/06/22 09:23:51;;;;;;;12.25;9.52;;;21.90;99.90;;;;;;5050525;28;20086;-80
2023/06/22 09:26:20;;;;;;;10.02;8.23;;;22.00;99.90;;;;;;5051231;28;20036;-81
2023/06/22 09:28:46;;;;;;;9.70;8.23;;;22.10;99.90;;;;;;5069821;28;20044;-80
2023/06/22 09:31:12;;;;;;;11.00;7.80;;;22.10;99.90;;;;;;5054269;28;20041;-79
2023/06/22 09:33:40;;;;;;;8.35;7.32;;;22.10;99.90;;;;;;5072469;28;20127;-80
2023/06/22 09:36:10;;;;;;;12.00;7.75;;;22.20;99.90;;;;;;5050581;28;20161;-80
2023/06/22 09:38:37;;;;;;;8.27;7.43;;;22.20;99.90;;;;;;5067955;28;20512;-80
2023/06/22 09:41:02;;;;;;;10.50;7.75;;;22.20;99.90;;;;;;5067106;28;20041;-80
2023/06/22 09:43:29;;;;;;;9.38;7.05;;;22.30;99.90;;;;;;5068361;28;20029;-81
2023/06/22 09:45:55;;;;;;;9.45;6.70;;;22.30;99.90;;;;;;5069792;28;20055;-79
2023/06/22 09:48:24;;;;;;;8.70;6.88;;;22.30;99.90;;;;;;5054212;28;20102;-80
2023/06/22 09:50:50;;;;;;;10.95;7.35;;;22.40;99.90;;;;;;5053235;28;20048;-78
2023/06/22 09:53:15;;;;;;;9.82;6.63;;;22.40;99.90;;;;;;5051333;28;20132;-79
2023/06/22 09:55:41;;;;;;;15.57;12.55;;;22.50;99.90;;;;;;5050298;28;20086;-80
2023/06/22 09:58:08;;;;;;;14.32;12.38;;;22.50;99.90;;;;;;5049984;28;20058;-79
2023/06/22 10:00:34;;;;;;;10.80;7.25;;;22.60;99.90;;;;;;5067795;28;20037;-80
2023/06/22 10:02:59;;;;;;;8.68;7.18;;;22.60;99.90;;;;;;5070731;28;20430;-79
2023/06/22 10:05:25;;;;;;;7.55;6.80;;;22.70;99.90;;;;;;5070668;28;20055;-79
2023/06/22 10:07:52;;;;;;;7.40;5.88;;;22.70;99.90;;;;;;5071538;28;20049;-79
2023/06/22 10:10:17;;;;;;;9.85;7.20;;;22.80;99.90;;;;;;5053629;28;20032;-79
2023/06/22 10:12:54;;;;;;;10.95;6.57;;;22.90;99.90;;;;;;5054066;28;20506;-78
2023/06/22 10:15:21;;;;;;;9.13;6.70;;;23.00;99.90;;;;;;5069806;28;20055;-79
2023/06/22 10:17:46;;;;;;;7.75;6.68;;;23.10;99.90;;;;;;5055080;28;20083;-79
2023/06/22 10:20:13;;;;;;;11.25;8.63;;;23.20;99.90;;;;;;5053656;28;20063;-79
2023/06/22 10:22:43;;;;;;;9.18;8.15;;;23.20;99.90;;;;;;5070812;28;20502;-79
2023/06/22 10:25:12;;;;;;;8.50;6.53;;;23.20;99.90;;;;;;5046262;28;20052;-79
2023/06/22 10:27:41;;;;;;;6.10;5.35;;;23.20;99.90;;;;;;5071746;28;20044;-78
2023/06/22 10:30:08;;;;;;;6.07;5.45;;;23.20;99.90;;;;;;5062316;28;20040;-79
2023/06/22 10:32:34;;;;;;;6.78;6.03;;;23.30;99.90;;;;;;5053088;28;20130;-79
2023/06/22 10:35:00;;;;;;;7.97;5.22;;;23.30;99.90;;;;;;5072757;28;20075;-79
2023/06/22 10:37:25;;;;;;;7.85;5.55;;;23.40;99.90;;;;;;5069996;28;20040;-79
2023/06/22 10:39:51;;;;;;;6.95;5.65;;;23.50;99.90;;;;;;5069796;28;20492;-79
2023/06/22 10:42:17;;;;;;;6.45;4.82;;;23.60;99.90;;;;;;5069929;28;20047;-79
2023/06/22 10:44:44;;;;;;;10.77;4.80;;;23.60;99.90;;;;;;5069954;28;20484;-78
2023/06/22 10:47:11;;;;;;;6.25;5.00;;;23.80;99.90;;;;;;5070194;28;20399;-79
2023/06/22 10:49:40;;;;;;;7.70;4.50;;;23.80;99.90;;;;;;5053504;28;20381;-79
2023/06/22 10:52:07;;;;;;;6.47;5.32;;;23.90;99.90;;;;;;5071463;28;20037;-79
2023/06/22 10:54:33;;;;;;;5.40;4.90;;;24.00;99.90;;;;;;5052541;28;20193;-79
2023/06/22 10:57:00;;;;;;;5.97;5.38;;;24.10;99.90;;;;;;5069327;28;20064;-79
2023/06/22 10:59:27;;;;;;;6.20;4.68;;;24.10;99.90;;;;;;5069401;28;20059;-79
2023/06/22 11:01:53;;;;;;;6.40;4.65;;;24.20;99.90;;;;;;5053210;28;20075;-79
2023/06/22 11:04:19;;;;;;;8.85;5.32;;;24.30;99.90;;;;;;5070233;28;20036;-79
2023/06/22 11:06:44;;;;;;;7.32;4.70;;;24.40;99.90;;;;;;5075875;28;20051;-79
2023/06/22 11:09:10;;;;;;;6.88;5.53;;;24.50;99.90;;;;;;5047149;28;20058;-80
2023/06/22 11:11:36;;;;;;;8.27;5.05;;;24.50;99.90;;;;;;5069673;28;20049;-80
2023/06/22 11:14:02;;;;;;;6.45;5.85;;;24.50;99.90;;;;;;5071199;28;20132;-80
2023/06/22 11:16:28;;;;;;;6.82;5.78;;;24.60;99.90;;;;;;5052542;28;20131;-80
2023/06/22 11:18:53;;;;;;;8.27;6.32;;;24.60;99.90;;;;;;5070807;28;20047;-79
2023/06/22 11:21:19;;;;;;;8.57;7.68;;;24.70;99.90;;;;;;5071417;28;20040;-80
2023/06/22 11:23:45;;;;;;;9.35;6.47;;;24.70;99.90;;;;;;5053239;28;20033;-80
2023/06/22 11:26:11;;;;;;;8.27;5.95;;;24.80;99.90;;;;;;5068693;28;20060;-79
2023/06/22 11:28:37;;;;;;;5.45;4.97;;;24.70;99.90;;;;;;5052519;28;20052;-80
2023/06/22 11:31:03;;;;;;;10.88;5.90;;;24.90;99.90;;;;;;5052948;28;20048;-80
2023/06/22 11:33:29;;;;;;;5.82;5.20;;;24.90;99.90;;;;;;5071698;28;20048;-80
2023/06/22 11:35:56;;;;;;;8.10;5.30;;;24.90;99.90;;;;;;5068872;28;20400;-79
2023/06/22 11:38:22;;;;;;;7.43;5.68;;;24.80;99.90;;;;;;5053792;28;20131;-79
2023/06/22 11:40:47;;;;;;;6.47;5.68;;;24.90;99.90;;;;;;5053582;28;20154;-79
2023/06/22 11:43:14;;;;;;;6.47;5.28;;;24.90;99.90;;;;;;5069392;28;20395;-78
2023/06/22 11:45:40;;;;;;;8.05;5.38;;;24.90;99.90;;;;;;5070539;28;20699;-79
2023/06/22 11:48:06;;;;;;;5.85;5.25;;;24.80;99.90;;;;;;5070673;28;20041;-79
2023/06/22 11:50:35;;;;;;;4.75;4.38;;;24.90;99.90;;;;;;5052260;28;20044;-80
2023/06/22 11:53:04;;;;;;;5.18;4.68;;;24.80;99.90;;;;;;5070120;28;20045;-79
2023/06/22 11:55:29;;;;;;;5.63;5.13;;;24.90;99.90;;;;;;5070030;28;20029;-78
2023/06/22 11:57:59;;;;;;;6.85;4.05;;;24.90;99.90;;;;;;5067915;28;20496;-78
2023/06/22 12:00:25;;;;;;;6.40;4.97;;;24.90;99.90;;;;;;5069458;28;20037;-78
2023/06/22 12:02:51;;;;;;;5.03;4.53;;;24.90;99.90;;;;;;5068648;28;20109;-79
2023/06/22 12:05:21;;;;;;;4.70;4.30;;;24.90;99.90;;;;;;5033817;28;20032;-79
2023/06/22 12:07:47;;;;;;;6.30;5.22;;;25.00;99.90;;;;;;5067949;28;20047;-79
2023/06/22 12:10:13;;;;;;;5.82;4.78;;;24.90;99.90;;;;;;5051105;28;20036;-80
2023/06/22 12:12:38;;;;;;;6.22;4.72;;;24.90;99.90;;;;;;5068050;28;20048;-80
2023/06/22 12:15:05;;;;;;;8.27;5.13;;;24.90;99.90;;;;;;5068767;28;20135;-79
2023/06/22 12:17:31;;;;;;;5.32;4.75;;;24.90;99.90;;;;;;5069385;28;20503;-80
2023/06/22 12:19:58;;;;;;;6.57;5.57;;;24.90;99.90;;;;;;5069457;28;20044;-79
2023/06/22 12:22:23;;;;;;;9.27;5.28;;;24.90;99.90;;;;;;5070087;28;20040;-77
2023/06/22 12:24:49;;;;;;;5.60;4.43;;;24.80;99.90;;;;;;5067699;28;20051;-78
2023/06/22 12:27:17;;;;;;;8.98;5.28;;;24.80;99.90;;;;;;5068902;28;20040;-78
2023/06/22 12:29:45;;;;;;;14.25;10.00;;;24.80;99.90;;;;;;5069242;28;20048;-78
2023/06/22 12:32:12;;;;;;;25.88;23.35;;;24.70;99.90;;;;;;5069184;28;20419;-78